Terminal Aerodrome Forecast
Issued by NWS

Home | Current Version | Previous Version | Graphics & Text | Print | Product List | Glossary On
Versions: 1 2 3 4 5 6 7 8 9 10 11 12 13 14 15 16 17 18 19 20 21 22 23
000
FTUS43 KOAX 241721
TAFCDR
TAF
KCDR 241721Z 2418/2518 29012KT P6SM SCT050
     FM241900 30012KT P6SM SCT250
     FM250000 25006KT P6SM SCT050 BKN080
     FM250900 30007KT 4SM -SN SCT015 BKN025
     FM251100 30012KT 2SM -SN BKN015
     FM251700 35014G24KT P6SM VCSH SCT020 BKN030=

USA.gov is the U.S. government's official web portal to all federal, state and local government web resources and services.